createdAt,value
2022-08-03T00:01:27.313Z,99.90
2022-08-03T00:03:54.172Z,99.90
2022-08-03T00:06:21.015Z,99.90
2022-08-03T00:08:47.893Z,99.90
2022-08-03T00:11:14.899Z,99.90
2022-08-03T00:13:41.776Z,99.90
2022-08-03T00:16:08.895Z,99.90
2022-08-03T00:18:35.755Z,99.90
2022-08-03T00:21:03.351Z,99.90
2022-08-03T00:23:50.901Z,99.90
2022-08-03T00:26:17.079Z,99.90
2022-08-03T00:28:43.934Z,99.90
2022-08-03T00:31:13.298Z,99.90
2022-08-03T00:33:59.533Z,99.90
2022-08-03T00:36:28.231Z,99.90
2022-08-03T00:38:55.753Z,99.90
2022-08-03T00:41:22.937Z,99.90
2022-08-03T00:43:50.015Z,99.90
2022-08-03T00:46:21.445Z,99.90
2022-08-03T00:48:52.080Z,99.90
2022-08-03T00:51:20.064Z,99.90
2022-08-03T00:53:47.064Z,99.90
2022-08-03T00:56:15.371Z,99.90
2022-08-03T00:58:42.205Z,99.90
2022-08-03T01:01:09.154Z,99.90
2022-08-03T01:03:36.076Z,99.90
2022-08-03T01:06:15.121Z,99.90
2022-08-03T01:08:53.632Z,99.90
2022-08-03T01:12:01.245Z,99.90
2022-08-03T01:14:31.235Z,99.90
2022-08-03T01:17:00.319Z,99.90
2022-08-03T01:19:32.782Z,99.90
2022-08-03T01:22:08.439Z,99.90
2022-08-03T01:24:42.277Z,99.90
2022-08-03T01:27:30.734Z,99.90
2022-08-03T01:30:02.915Z,99.90
2022-08-03T01:32:53.556Z,99.90
2022-08-03T01:35:47.128Z,99.90
2022-08-03T01:38:25.985Z,99.90
2022-08-03T01:40:56.382Z,99.90
2022-08-03T01:44:27.242Z,99.90
2022-08-03T01:46:15.072Z,99.90
2022-08-03T01:48:43.077Z,99.90
2022-08-03T01:51:10.105Z,99.90
2022-08-03T01:53:38.118Z,99.90
2022-08-03T01:56:05.086Z,99.90
2022-08-03T01:58:32.001Z,99.90
2022-08-03T02:01:01.205Z,99.90
2022-08-03T02:03:31.336Z,99.90
2022-08-03T02:06:59.190Z,99.90
2022-08-03T02:08:45.449Z,99.90
2022-08-03T02:11:12.486Z,99.90
2022-08-03T02:13:39.413Z,99.90
2022-08-03T02:16:06.555Z,99.90
2022-08-03T02:18:33.538Z,99.90
2022-08-03T02:21:05.361Z,99.90
2022-08-03T02:23:38.331Z,99.90
2022-08-03T02:26:06.177Z,99.90
2022-08-03T02:28:37.306Z,99.90
2022-08-03T02:31:06.217Z,99.90
2022-08-03T02:33:44.172Z,99.90
2022-08-03T02:36:11.777Z,99.90
2022-08-03T02:38:41.020Z,99.90
2022-08-03T02:41:08.059Z,99.90
2022-08-03T02:43:39.200Z,99.90
2022-08-03T02:46:24.856Z,99.90
2022-08-03T02:48:52.249Z,99.90
2022-08-03T02:51:19.710Z,99.90
2022-08-03T02:53:46.632Z,99.90
2022-08-03T02:56:13.554Z,99.90
2022-08-03T02:58:42.853Z,99.90
2022-08-03T03:01:09.866Z,99.90
2022-08-03T03:03:44.865Z,99.90
2022-08-03T03:06:11.971Z,99.90
2022-08-03T03:08:39.265Z,99.90
2022-08-03T03:11:06.098Z,99.90
2022-08-03T03:13:32.990Z,99.90
2022-08-03T03:16:04.150Z,99.90
2022-08-03T03:18:34.530Z,99.90
2022-08-03T03:21:01.861Z,99.90
2022-08-03T03:23:28.837Z,99.90
2022-08-03T03:25:56.509Z,99.90
2022-08-03T03:28:24.304Z,99.90
2022-08-03T03:30:52.870Z,99.90
2022-08-03T03:33:21.732Z,99.90
2022-08-03T03:35:48.897Z,99.90
2022-08-03T03:38:15.812Z,99.90
2022-08-03T03:40:42.620Z,99.90
2022-08-03T03:43:10.340Z,99.90
2022-08-03T03:45:37.332Z,99.90
2022-08-03T03:48:04.680Z,99.90
2022-08-03T03:50:32.377Z,99.90
2022-08-03T03:52:59.422Z,99.90
2022-08-03T03:55:26.287Z,99.90
2022-08-03T03:57:53.139Z,99.90
2022-08-03T04:00:20.095Z,99.90
2022-08-03T04:02:47.112Z,99.90
2022-08-03T04:05:33.215Z,99.90
2022-08-03T04:08:22.185Z,99.90
2022-08-03T04:11:07.130Z,99.90
2022-08-03T04:13:36.588Z,99.90
2022-08-03T04:16:03.645Z,99.90
2022-08-03T04:18:31.924Z,99.90
2022-08-03T04:21:01.687Z,99.90
2022-08-03T04:23:28.533Z,99.90
2022-08-03T04:25:55.459Z,99.90
2022-08-03T04:28:29.556Z,99.90
2022-08-03T04:30:59.419Z,99.90
2022-08-03T04:33:29.636Z,99.90
2022-08-03T04:36:02.534Z,99.90
2022-08-03T04:38:31.769Z,99.90
2022-08-03T04:40:58.644Z,99.90
2022-08-03T04:43:25.527Z,99.90
2022-08-03T04:45:52.398Z,99.90
2022-08-03T04:48:20.114Z,99.90
2022-08-03T04:50:47.357Z,99.90
2022-08-03T04:53:14.202Z,99.90
2022-08-03T04:55:41.055Z,99.90
2022-08-03T04:58:07.896Z,99.90
2022-08-03T05:00:34.772Z,99.90
2022-08-03T05:03:01.623Z,99.90
2022-08-03T05:05:37.877Z,99.90
2022-08-03T05:08:15.331Z,99.90
2022-08-03T05:10:42.184Z,99.90
2022-08-03T05:13:13.029Z,99.90
2022-08-03T05:15:42.865Z,99.90
2022-08-03T05:18:13.971Z,99.90
2022-08-03T05:20:41.606Z,99.90
2022-08-03T05:23:08.455Z,99.90
2022-08-03T05:25:35.353Z,99.90
2022-08-03T05:28:02.196Z,99.90
2022-08-03T05:30:33.571Z,99.90
2022-08-03T05:33:02.619Z,99.90
2022-08-03T05:36:00.651Z,99.90
2022-08-03T05:38:24.156Z,99.90
2022-08-03T05:41:21.490Z,99.90
2022-08-03T05:43:45.112Z,99.90
2022-08-03T05:46:13.213Z,99.90
2022-08-03T05:48:40.680Z,99.90
2022-08-03T05:51:07.840Z,99.90
2022-08-03T05:53:34.820Z,99.90
2022-08-03T05:56:13.116Z,99.90
2022-08-03T05:58:43.968Z,99.90
2022-08-03T06:01:10.927Z,99.90
2022-08-03T06:03:37.815Z,99.90
2022-08-03T06:06:04.805Z,99.90
2022-08-03T06:08:31.681Z,99.90
2022-08-03T06:10:58.515Z,99.90
2022-08-03T06:13:25.443Z,99.90
2022-08-03T06:15:52.280Z,99.90
2022-08-03T06:18:19.170Z,99.90
2022-08-03T06:20:47.125Z,99.90
2022-08-03T06:23:18.046Z,99.90
2022-08-03T06:25:45.710Z,99.90
2022-08-03T06:28:42.595Z,99.90
2022-08-03T06:31:01.504Z,99.90
2022-08-03T06:34:30.166Z,99.90
2022-08-03T06:36:15.794Z,99.90
2022-08-03T06:38:42.694Z,99.90
2022-08-03T06:41:09.682Z,99.90
2022-08-03T06:43:37.933Z,99.90
2022-08-03T06:46:05.632Z,99.90
2022-08-03T06:48:32.725Z,99.90
2022-08-03T06:50:59.675Z,99.90
2022-08-03T06:53:26.563Z,99.90
2022-08-03T06:55:54.954Z,99.90
2022-08-03T06:58:22.573Z,99.90
2022-08-03T07:00:49.528Z,99.90
2022-08-03T07:03:16.694Z,99.90
2022-08-03T07:05:44.000Z,99.90
2022-08-03T07:08:10.979Z,99.90
2022-08-03T07:10:38.060Z,99.90
2022-08-03T07:13:05.545Z,99.90
2022-08-03T07:15:56.187Z,99.90
2022-08-03T07:18:29.371Z,99.90
2022-08-03T07:20:57.701Z,99.90
2022-08-03T07:23:25.561Z,99.90
2022-08-03T07:25:52.721Z,99.90
2022-08-03T07:28:20.278Z,99.90
2022-08-03T07:30:47.358Z,99.90
2022-08-03T07:33:14.540Z,99.90
2022-08-03T07:35:41.370Z,99.90
2022-08-03T07:38:08.219Z,99.90
2022-08-03T07:40:35.125Z,99.90
2022-08-03T07:43:03.418Z,99.90
2022-08-03T07:45:32.264Z,99.90
2022-08-03T07:47:59.139Z,99.90
2022-08-03T07:50:26.129Z,99.90
2022-08-03T07:52:54.099Z,99.90
2022-08-03T07:55:22.338Z,99.90
2022-08-03T07:58:00.872Z,99.90
2022-08-03T08:00:27.808Z,99.90
2022-08-03T08:02:54.675Z,99.90
2022-08-03T08:05:21.609Z,99.90
2022-08-03T08:07:51.117Z,99.90
2022-08-03T08:10:18.898Z,99.90
2022-08-03T08:12:45.902Z,99.90
2022-08-03T08:15:12.862Z,99.90
2022-08-03T08:17:44.291Z,99.90
2022-08-03T08:20:12.542Z,99.90
2022-08-03T08:22:39.453Z,99.90
2022-08-03T08:25:07.788Z,99.90
2022-08-03T08:28:31.677Z,99.90
2022-08-03T08:30:22.564Z,99.90
2022-08-03T08:32:49.849Z,99.90
2022-08-03T08:35:17.519Z,99.90
2022-08-03T08:37:51.060Z,99.90
2022-08-03T08:40:20.387Z,99.90
2022-08-03T08:42:57.975Z,99.90
2022-08-03T08:45:25.177Z,99.90
2022-08-03T08:47:54.722Z,99.90
2022-08-03T08:50:27.788Z,99.90
2022-08-03T08:52:55.222Z,99.90
2022-08-03T08:55:23.197Z,99.90
2022-08-03T08:57:58.212Z,99.90
2022-08-03T09:00:25.162Z,99.90
2022-08-03T09:02:52.042Z,99.90
2022-08-03T09:05:24.708Z,99.90
2022-08-03T09:07:58.550Z,99.90
2022-08-03T09:10:25.530Z,99.90
2022-08-03T09:12:52.728Z,99.90
2022-08-03T09:15:23.968Z,99.90
2022-08-03T09:17:51.745Z,99.90
2022-08-03T09:20:19.281Z,99.90
2022-08-03T09:22:58.178Z,99.90
2022-08-03T09:25:41.811Z,99.90
2022-08-03T09:28:33.704Z,99.90
2022-08-03T09:31:03.903Z,99.90
2022-08-03T09:33:36.131Z,99.90
2022-08-03T09:36:03.231Z,99.90
2022-08-03T09:38:30.115Z,99.90
2022-08-03T09:41:00.255Z,99.90
2022-08-03T09:43:28.095Z,99.90
2022-08-03T09:46:03.230Z,99.90
2022-08-03T09:48:31.315Z,99.90
2022-08-03T09:51:13.611Z,99.90
2022-08-03T09:53:58.424Z,99.90
2022-08-03T09:56:41.056Z,99.90
2022-08-03T09:59:08.283Z,99.90
2022-08-03T10:01:35.481Z,99.90
2022-08-03T10:04:03.837Z,99.90
2022-08-03T10:06:31.476Z,99.90
2022-08-03T10:09:11.552Z,99.90
2022-08-03T10:11:41.624Z,99.90
2022-08-03T10:14:10.665Z,99.90
2022-08-03T10:16:39.319Z,99.90
2022-08-03T10:19:07.676Z,99.90
2022-08-03T10:21:35.798Z,99.90
2022-08-03T10:24:04.226Z,99.90
2022-08-03T10:26:32.950Z,99.90
2022-08-03T10:29:00.957Z,99.90
2022-08-03T10:31:35.476Z,99.90
2022-08-03T10:34:02.413Z,99.90
2022-08-03T10:36:31.351Z,99.90
2022-08-03T10:38:59.509Z,99.90
2022-08-03T10:41:27.216Z,99.90
2022-08-03T10:44:05.633Z,99.90
2022-08-03T10:46:32.506Z,99.90
2022-08-03T10:48:59.423Z,99.90
2022-08-03T10:51:30.583Z,99.90
2022-08-03T10:53:57.721Z,99.90
2022-08-03T10:56:54.623Z,99.90
2022-08-03T10:59:46.692Z,99.90
2022-08-03T11:02:14.519Z,99.90
2022-08-03T11:04:41.558Z,99.90
2022-08-03T11:07:17.938Z,99.90
2022-08-03T11:09:48.563Z,99.90
2022-08-03T11:12:32.625Z,99.90
2022-08-03T11:15:05.148Z,99.90
2022-08-03T11:17:46.495Z,99.90
2022-08-03T11:20:46.908Z,99.90
2022-08-03T11:23:14.501Z,99.90
2022-08-03T11:26:18.561Z,99.90
2022-08-03T11:28:46.572Z,99.90
2022-08-03T11:31:48.061Z,99.90
2022-08-03T11:34:10.466Z,99.90
2022-08-03T11:37:14.853Z,99.90
2022-08-03T11:39:45.211Z,99.90
2022-08-03T11:42:35.313Z,99.90
2022-08-03T11:45:02.200Z,99.90
2022-08-03T11:47:29.975Z,99.90
2022-08-03T11:50:02.078Z,99.90
2022-08-03T11:52:34.894Z,99.90
2022-08-03T11:55:01.832Z,99.90
2022-08-03T11:59:02.706Z,99.90
2022-08-03T12:00:23.608Z,99.90
2022-08-03T12:03:16.253Z,99.90
2022-08-03T12:05:51.716Z,99.90
2022-08-03T12:08:39.938Z,99.90
2022-08-03T12:11:08.822Z,99.90
2022-08-03T12:14:43.823Z,99.90
2022-08-03T12:16:33.984Z,99.90
2022-08-03T12:19:07.046Z,99.90
2022-08-03T12:21:34.128Z,99.90
2022-08-03T12:24:02.352Z,99.90
2022-08-03T12:26:29.802Z,99.90
2022-08-03T12:28:56.810Z,99.90
2022-08-03T12:31:23.805Z,99.90
2022-08-03T12:34:03.029Z,99.90
2022-08-03T12:36:34.400Z,99.90
2022-08-03T12:39:08.859Z,99.90
2022-08-03T12:41:37.247Z,99.90
2022-08-03T12:44:05.480Z,99.90
2022-08-03T12:46:43.972Z,99.90
2022-08-03T12:49:15.543Z,99.90
2022-08-03T12:51:42.750Z,99.90
2022-08-03T12:54:16.457Z,99.90
2022-08-03T12:57:16.275Z,99.90
2022-08-03T12:59:53.068Z,99.90
2022-08-03T13:02:25.201Z,99.90
2022-08-03T13:04:53.040Z,99.90
2022-08-03T13:07:20.647Z,99.90
2022-08-03T13:09:55.504Z,99.90
2022-08-03T13:12:28.750Z,99.90
2022-08-03T13:14:56.694Z,99.90
2022-08-03T13:17:23.654Z,99.90
2022-08-03T13:19:50.623Z,99.90
2022-08-03T13:22:25.644Z,99.90
2022-08-03T13:24:55.883Z,99.90
2022-08-03T13:28:03.679Z,99.90
2022-08-03T13:30:10.043Z,99.90
2022-08-03T13:32:36.931Z,99.90
2022-08-03T13:35:04.479Z,99.90
2022-08-03T13:37:32.456Z,99.90
2022-08-03T13:40:03.131Z,99.90
2022-08-03T13:42:32.229Z,99.90
2022-08-03T13:44:59.648Z,99.90
2022-08-03T13:47:26.978Z,99.90
2022-08-03T13:50:00.994Z,99.90
2022-08-03T13:52:30.069Z,99.90
2022-08-03T13:54:56.941Z,99.90
2022-08-03T13:58:02.559Z,99.90
2022-08-03T14:00:11.418Z,99.40
2022-08-03T14:02:38.504Z,98.50
2022-08-03T14:05:05.710Z,99.10
2022-08-03T14:07:32.598Z,98.40
2022-08-03T14:09:59.543Z,97.40
2022-08-03T14:12:26.398Z,97.90
2022-08-03T14:14:53.993Z,97.90
2022-08-03T14:17:23.266Z,97.00
2022-08-03T14:19:53.107Z,96.50
2022-08-03T14:22:21.395Z,96.50
2022-08-03T14:24:49.321Z,96.70
2022-08-03T14:27:16.748Z,96.40
2022-08-03T14:29:43.764Z,96.30
2022-08-03T14:32:13.116Z,96.10
2022-08-03T14:34:40.541Z,96.20
2022-08-03T14:37:07.528Z,96.20
2022-08-03T14:42:21.802Z,96.80
2022-08-03T14:44:48.736Z,96.70
2022-08-03T14:47:15.728Z,96.70
2022-08-03T14:50:35.966Z,97.40
2022-08-03T14:52:30.088Z,96.90
2022-08-03T14:54:57.275Z,96.80
2022-08-03T14:57:24.325Z,96.30
2022-08-03T14:59:55.966Z,96.30
2022-08-03T15:02:25.048Z,96.40
2022-08-03T15:04:52.508Z,96.80
2022-08-03T15:07:20.747Z,96.80
2022-08-03T15:09:47.965Z,96.90
2022-08-03T15:12:14.844Z,97.30
2022-08-03T15:14:41.748Z,97.20
2022-08-03T15:17:08.649Z,97.30
2022-08-03T15:20:03.567Z,97.40
2022-08-03T15:22:25.380Z,97.30
2022-08-03T15:26:28.904Z,98.00
2022-08-03T15:28:03.874Z,97.50
2022-08-03T15:30:35.139Z,97.60
2022-08-03T15:33:02.570Z,97.70
2022-08-03T15:35:29.697Z,97.80
2022-08-03T15:37:56.621Z,98.00
2022-08-03T15:40:23.508Z,98.10
2022-08-03T15:42:50.355Z,97.80
2022-08-03T15:45:17.787Z,97.80
2022-08-03T15:47:47.307Z,98.00
2022-08-03T15:50:14.199Z,98.10
2022-08-03T15:52:41.082Z,97.00
2022-08-03T15:55:08.655Z,96.80
2022-08-03T15:59:03.204Z,96.60
2022-08-03T16:00:33.488Z,96.80
2022-08-03T16:03:00.981Z,97.00
2022-08-03T16:05:28.170Z,96.50
2022-08-03T16:08:03.194Z,96.90
2022-08-03T16:10:31.609Z,96.60
2022-08-03T16:13:01.107Z,97.10
2022-08-03T16:15:28.070Z,98.20
2022-08-03T16:17:54.997Z,98.40
2022-08-03T16:20:33.906Z,98.80
2022-08-03T16:23:10.643Z,98.30
2022-08-03T16:25:42.233Z,98.70
2022-08-03T16:28:13.881Z,98.90
2022-08-03T16:30:42.513Z,99.00
2022-08-03T16:33:09.603Z,99.20
2022-08-03T16:35:36.632Z,99.40
2022-08-03T16:38:09.281Z,99.50
2022-08-03T16:40:36.773Z,99.20
2022-08-03T16:43:18.411Z,98.90
2022-08-03T16:45:46.342Z,98.90
2022-08-03T16:48:13.674Z,99.50
2022-08-03T16:50:40.595Z,99.60
2022-08-03T16:53:09.034Z,99.90
2022-08-03T16:55:49.086Z,99.90
2022-08-03T16:58:24.335Z,99.90
2022-08-03T17:01:10.828Z,99.90
2022-08-03T17:03:57.325Z,99.90
2022-08-03T17:06:34.408Z,99.90
2022-08-03T17:09:08.975Z,99.90
2022-08-03T17:11:38.651Z,99.90
2022-08-03T17:14:11.849Z,99.90
2022-08-03T17:16:39.126Z,99.90
2022-08-03T17:19:19.693Z,99.90
2022-08-03T17:21:50.869Z,99.90
2022-08-03T17:24:41.437Z,99.90
2022-08-03T17:28:42.150Z,99.90
2022-08-03T17:30:12.148Z,99.90
2022-08-03T17:32:56.930Z,99.90
2022-08-03T17:35:38.703Z,99.90
2022-08-03T17:38:10.346Z,99.90
2022-08-03T17:40:39.406Z,99.90
2022-08-03T17:43:44.509Z,99.90
2022-08-03T17:46:07.345Z,99.90
2022-08-03T17:48:41.564Z,99.90
2022-08-03T17:51:27.330Z,99.90
2022-08-03T17:54:00.943Z,99.90
2022-08-03T17:56:49.419Z,99.90
2022-08-03T17:59:52.401Z,99.90
2022-08-03T18:03:04.042Z,99.90
2022-08-03T18:08:21.482Z,99.90
2022-08-03T18:10:54.253Z,99.90
2022-08-03T18:13:31.750Z,99.90
2022-08-03T18:16:04.502Z,99.90
2022-08-03T18:18:35.879Z,99.90
2022-08-03T18:21:04.619Z,99.90
2022-08-03T18:23:36.772Z,99.90
2022-08-03T18:26:06.890Z,99.90
2022-08-03T18:28:34.810Z,99.90
2022-08-03T18:31:04.470Z,99.90
2022-08-03T18:34:17.447Z,99.90
2022-08-03T18:36:30.560Z,99.90
2022-08-03T18:39:02.384Z,99.90
2022-08-03T18:41:32.603Z,99.90
2022-08-03T18:44:52.553Z,99.90
2022-08-03T18:47:28.332Z,99.90
2022-08-03T18:50:23.800Z,99.90
2022-08-03T18:53:16.312Z,99.90
2022-08-03T18:56:01.201Z,99.90
2022-08-03T18:58:48.151Z,99.90
2022-08-03T19:01:59.159Z,99.90
2022-08-03T19:04:34.091Z,99.90
2022-08-03T19:07:10.295Z,99.90
2022-08-03T19:09:45.173Z,99.90
2022-08-03T19:12:35.478Z,99.90
2022-08-03T19:15:12.754Z,99.90
2022-08-03T19:17:50.091Z,99.90
2022-08-03T19:20:28.151Z,99.90
2022-08-03T19:22:55.843Z,99.90
2022-08-03T19:25:35.429Z,99.90
2022-08-03T19:28:06.287Z,99.90
2022-08-03T19:30:38.797Z,99.90
2022-08-03T19:33:07.350Z,99.90
2022-08-03T19:35:51.520Z,99.90
2022-08-03T19:38:28.223Z,99.90
2022-08-03T19:41:01.252Z,99.90
2022-08-03T19:43:52.627Z,99.90
2022-08-03T19:46:21.407Z,99.90
2022-08-03T19:49:21.368Z,99.90
2022-08-03T19:51:58.445Z,99.90
2022-08-03T19:54:32.283Z,99.90
2022-08-03T19:56:59.264Z,99.90
2022-08-03T20:02:25.629Z,99.90
2022-08-03T20:04:57.508Z,99.90
2022-08-03T20:07:25.644Z,99.90
2022-08-03T20:09:56.554Z,99.90
2022-08-03T20:12:28.235Z,99.90
2022-08-03T20:14:58.828Z,99.90
2022-08-03T20:17:55.944Z,99.90
2022-08-03T20:20:13.578Z,99.90
2022-08-03T20:22:43.176Z,99.90
2022-08-03T20:25:13.055Z,99.90
2022-08-03T20:28:06.688Z,99.90
2022-08-03T20:30:34.619Z,99.90
2022-08-03T20:33:01.606Z,99.90
2022-08-03T20:35:29.014Z,99.90
2022-08-03T20:37:56.211Z,99.90
2022-08-03T20:40:27.442Z,99.90
2022-08-03T20:42:55.493Z,99.90
2022-08-03T20:45:59.158Z,99.90
2022-08-03T20:48:09.976Z,99.90
2022-08-03T20:50:38.375Z,99.90
2022-08-03T20:53:08.922Z,99.90
2022-08-03T20:55:48.265Z,99.90
2022-08-03T20:58:25.772Z,99.90
2022-08-03T21:00:53.479Z,99.90
2022-08-03T21:03:20.334Z,99.90
2022-08-03T21:05:51.742Z,99.90
2022-08-03T21:08:22.025Z,99.90
2022-08-03T21:10:49.340Z,99.90
2022-08-03T21:13:04.851Z,99.90
2022-08-03T21:13:08.415Z,99.90
2022-08-03T21:13:39.745Z,99.90
2022-08-03T21:16:14.632Z,99.90
2022-08-03T21:18:50.926Z,99.90
2022-08-03T21:21:19.495Z,99.90
2022-08-03T21:23:49.788Z,99.90
2022-08-03T21:26:18.764Z,99.90
2022-08-03T21:28:46.153Z,99.90
2022-08-03T21:31:13.657Z,99.90
2022-08-03T21:33:40.853Z,99.90
2022-08-03T21:36:11.395Z,99.90
2022-08-03T21:38:38.243Z,99.90
2022-08-03T21:41:05.123Z,99.90
2022-08-03T21:43:31.980Z,99.90
2022-08-03T21:46:00.261Z,99.90
2022-08-03T21:48:27.857Z,99.90
2022-08-03T21:50:55.029Z,99.90
2022-08-03T21:53:21.850Z,99.90
2022-08-03T21:55:58.947Z,99.90
2022-08-03T21:58:31.881Z,99.90
2022-08-03T22:00:59.363Z,99.90
2022-08-03T22:03:26.654Z,99.90
2022-08-03T22:05:54.727Z,99.90
2022-08-03T22:08:34.597Z,99.90
2022-08-03T22:11:04.421Z,99.90
2022-08-03T22:13:44.131Z,99.90
2022-08-03T22:16:11.481Z,99.90
2022-08-03T22:18:39.306Z,99.90
2022-08-03T22:21:06.906Z,99.90
2022-08-03T22:23:41.193Z,99.90
2022-08-03T22:26:10.907Z,99.90
2022-08-03T22:28:37.794Z,99.90
2022-08-03T22:31:30.593Z,99.90
2022-08-03T22:33:52.669Z,99.90
2022-08-03T22:36:21.034Z,99.90
2022-08-03T22:38:48.057Z,99.90
2022-08-03T22:41:15.900Z,99.90
2022-08-03T22:43:42.853Z,99.90
2022-08-03T22:46:15.609Z,99.90
2022-08-03T22:48:45.441Z,99.90
2022-08-03T22:51:12.383Z,99.90
2022-08-03T22:53:39.580Z,99.90
2022-08-03T22:56:06.679Z,99.90
2022-08-03T22:58:33.516Z,99.90
2022-08-03T23:01:08.253Z,99.90
2022-08-03T23:04:00.748Z,99.90
2022-08-03T23:06:31.984Z,99.90
2022-08-03T23:08:59.042Z,99.90
2022-08-03T23:11:25.925Z,99.90
2022-08-03T23:13:54.131Z,99.90
2022-08-03T23:16:29.151Z,99.90
2022-08-03T23:18:58.780Z,99.90
2022-08-03T23:21:53.534Z,99.90
2022-08-03T23:24:29.164Z,99.90
2022-08-03T23:26:57.224Z,99.90
2022-08-03T23:29:24.069Z,99.90
2022-08-03T23:31:50.944Z,99.90
2022-08-03T23:34:36.071Z,99.90
2022-08-03T23:37:02.941Z,99.90
2022-08-03T23:39:35.142Z,99.90
2022-08-03T23:42:03.059Z,99.90
2022-08-03T23:44:30.722Z,99.90
2022-08-03T23:46:57.676Z,99.90
2022-08-03T23:49:24.547Z,99.90
2022-08-03T23:52:00.151Z,99.90
2022-08-03T23:54:39.350Z,99.90
2022-08-03T23:57:15.421Z,99.90
2022-08-03T23:59:52.866Z,99.90
